Time;durP1;ratioP1;P1;durP2;ratioP2;P2;SDS_P1;SDS_P2;PMS_P1;PMS_P2;Temp;Humidity;BMP_temperature;BMP_pressure;BME280_temperature;BME280_humidity;BME280_pressure;Samples;Min_cycle;Max_cycle;Signal;HPM_P1;HPM_P2
2022/05/12 00:00:58;;;;;;;11.38;5.00;;;;;;;12.99;42.45;99390.18;1723979;83;21564;-76
2022/05/12 00:03:25;;;;;;;8.78;3.95;;;;;;;12.98;42.61;99382.33;1724038;83;21486;-77
2022/05/12 00:05:51;;;;;;;7.28;3.58;;;;;;;12.95;42.48;99385.95;1724336;83;21494;-76
2022/05/12 00:08:18;;;;;;;4.78;3.22;;;;;;;12.96;42.50;99387.67;1723757;83;21094;-76
2022/05/12 00:10:45;;;;;;;11.48;4.00;;;;;;;12.94;42.60;99392.15;1724253;83;21026;-77
2022/05/12 00:13:12;;;;;;;8.50;3.92;;;;;;;12.94;42.52;99393.47;1723923;83;21089;-76
2022/05/12 00:15:39;;;;;;;5.80;3.62;;;;;;;12.93;42.61;99394.41;1724180;83;21042;-76
2022/05/12 00:18:08;;;;;;;8.88;4.55;;;;;;;12.93;42.61;99389.61;1724251;83;21114;-77
2022/05/12 00:20:37;;;;;;;16.97;9.05;;;;;;;12.92;42.65;99390.52;1724334;83;20991;-76
2022/05/12 00:23:12;;;;;;;22.55;11.28;;;;;;;12.92;42.50;99389.20;1724373;83;21429;-76
2022/05/12 00:25:38;;;;;;;19.75;11.88;;;;;;;12.92;42.45;99387.88;1724423;83;21133;-77
2022/05/12 00:28:07;;;;;;;14.83;10.00;;;;;;;12.92;42.37;99391.37;1724611;83;21077;-77
2022/05/12 00:30:34;;;;;;;15.80;9.50;;;;;;;12.94;42.41;99388.19;1724036;83;22221;-76
2022/05/12 00:33:00;;;;;;;9.60;7.30;;;;;;;12.94;42.29;99388.19;1725308;82;21035;-76
2022/05/12 00:35:27;;;;;;;8.48;5.80;;;;;;;12.95;42.17;99383.31;1752531;81;21584;-77
2022/05/12 00:37:53;;;;;;;11.40;5.78;;;;;;;12.96;42.27;99386.36;1752458;81;21586;-77
2022/05/12 00:40:20;;;;;;;13.95;5.83;;;;;;;12.97;42.32;99385.88;1752602;81;21081;-76
2022/05/12 00:43:08;;;;;;;15.03;5.60;;;;;;;12.97;42.45;99382.77;1752308;81;21200;-77
2022/05/12 00:45:36;;;;;;;7.22;4.55;;;;;;;12.96;42.42;99378.44;1752449;81;21561;-76
2022/05/12 00:48:04;;;;;;;9.25;4.35;;;;;;;12.96;42.44;99381.08;1752247;81;21039;-77
2022/05/12 00:50:35;;;;;;;6.62;4.12;;;;;;;12.95;42.23;99385.95;1752602;81;21050;-77
2022/05/12 00:53:04;;;;;;;5.95;3.80;;;;;;;12.95;42.33;99383.31;1752419;81;21065;-77
2022/05/12 00:55:33;;;;;;;5.15;3.42;;;;;;;12.95;42.40;99383.31;1752759;81;21395;-76
2022/05/12 00:58:00;;;;;;;6.03;3.30;;;;;;;12.94;42.63;99378.95;1752478;81;21097;-76
2022/05/12 01:00:27;;;;;;;6.22;3.47;;;;;;;12.92;42.58;99379.48;1752613;81;21542;-77
2022/05/12 01:02:57;;;;;;;6.92;3.00;;;;;;;12.92;42.49;99382.13;1752511;81;21643;-76
2022/05/12 01:05:24;;;;;;;5.15;3.12;;;;;;;12.93;42.69;99372.44;1752373;81;21148;-77
2022/05/12 01:07:51;;;;;;;5.65;3.02;;;;;;;12.93;42.64;99369.33;1752766;81;21506;-76
2022/05/12 01:10:19;;;;;;;8.35;2.90;;;;;;;12.94;42.76;99365.73;1752395;81;21011;-76
2022/05/12 01:12:46;;;;;;;6.03;2.70;;;;;;;12.94;42.89;99364.42;1704921;81;21128;-76
2022/05/12 01:15:12;;;;;;;8.65;2.58;;;;;;;12.93;42.97;99364.05;1752517;81;22055;-77
2022/05/12 01:17:39;;;;;;;10.53;2.80;;;;;;;12.92;43.07;99359.69;1752653;81;21074;-76
2022/05/12 01:20:07;;;;;;;5.37;2.55;;;;;;;12.92;42.93;99367.61;1752403;81;22240;-76
2022/05/12 01:22:58;;;;;;;5.25;2.83;;;;;;;12.91;42.93;99371.19;1752282;81;21113;-76
2022/05/12 01:25:27;;;;;;;6.95;3.20;;;;;;;12.92;42.89;99371.56;1752480;81;21085;-76
2022/05/12 01:27:54;;;;;;;8.25;2.83;;;;;;;12.92;42.92;99366.76;1752203;81;21668;-76
2022/05/12 01:30:23;;;;;;;9.63;3.02;;;;;;;12.91;43.06;99367.67;1752437;81;22240;-76
2022/05/12 01:32:50;;;;;;;3.72;2.60;;;;;;;12.90;42.99;99364.19;1752352;81;21966;-76
2022/05/12 01:35:20;;;;;;;6.42;2.80;;;;;;;12.90;42.99;99360.70;1756850;81;21109;-76
2022/05/12 01:37:47;;;;;;;6.25;2.62;;;;;;;12.90;43.08;99359.38;1756789;81;21112;-76
2022/05/12 01:40:20;;;;;;;6.72;2.60;;;;;;;12.88;43.19;99365.17;1756635;81;21066;-76
2022/05/12 01:42:47;;;;;;;7.60;2.80;;;;;;;12.85;43.10;99359.58;1757078;81;21085;-77
2022/05/12 01:45:14;;;;;;;6.45;2.60;;;;;;;12.84;43.06;99361.82;1756839;81;21084;-76
2022/05/12 01:47:42;;;;;;;7.72;2.90;;;;;;;12.84;43.10;99357.86;1761533;80;21078;-75
2022/05/12 01:50:09;;;;;;;10.55;2.77;;;;;;;12.83;43.11;99355.69;1725630;83;21193;-76
2022/05/12 01:52:37;;;;;;;4.70;2.72;;;;;;;12.82;43.18;99355.76;1725355;82;21070;-76
2022/05/12 01:55:05;;;;;;;2.52;2.15;;;;;;;12.83;43.17;99357.48;1725597;83;21027;-83
2022/05/12 01:57:32;;;;;;;3.62;2.45;;;;;;;12.82;43.17;99350.48;1756819;81;21128;-77
2022/05/12 01:59:59;;;;;;;4.65;2.60;;;;;;;12.82;43.27;99350.48;1756764;81;21042;-75
2022/05/12 02:02:28;;;;;;;5.60;2.62;;;;;;;12.80;43.48;99352.34;1725283;82;21055;-75
2022/05/12 02:04:54;;;;;;;7.83;2.55;;;;;;;12.77;43.58;99355.12;1757269;81;21057;-75
2022/05/12 02:07:21;;;;;;;4.50;2.70;;;;;;;12.74;43.48;99356.13;1756668;81;21583;-75
2022/05/12 02:09:49;;;;;;;3.20;2.20;;;;;;;12.74;43.53;99353.49;1726889;83;20998;-76
2022/05/12 02:12:18;;;;;;;4.55;2.47;;;;;;;12.74;43.53;99357.89;1756897;81;21042;-76
2022/05/12 02:14:44;;;;;;;7.40;2.20;;;;;;;12.73;43.54;99354.88;1725440;83;21044;-76
2022/05/12 02:17:11;;;;;;;4.85;2.45;;;;;;;12.72;43.56;99354.00;1725475;83;21027;-76
2022/05/12 02:19:38;;;;;;;7.15;2.83;;;;;;;12.71;43.71;99352.75;1756905;81;21084;-76
2022/05/12 02:22:06;;;;;;;7.37;2.80;;;;;;;12.68;43.79;99352.45;1757284;81;21084;-75
2022/05/12 02:24:33;;;;;;;6.42;2.80;;;;;;;12.66;43.92;99352.98;1725384;83;21055;-76
2022/05/12 02:26:59;;;;;;;5.70;2.60;;;;;;;12.63;43.99;99353.97;1757279;81;21077;-76
2022/05/12 02:29:26;;;;;;;6.78;2.80;;;;;;;12.63;43.98;99352.65;1756551;81;21395;-76
2022/05/12 02:31:53;;;;;;;4.05;2.60;;;;;;;12.62;43.91;99357.55;1725183;82;21169;-76
2022/05/12 02:34:19;;;;;;;9.58;2.92;;;;;;;12.62;43.88;99359.31;1753433;81;21480;-76
2022/05/12 02:37:01;;;;;;;9.20;2.50;;;;;;;12.62;43.72;99360.63;1735546;82;21010;-76
2022/05/12 02:39:35;;;;;;;7.45;2.60;;;;;;;12.63;43.75;99356.61;1755044;81;21675;-76
2022/05/12 02:42:03;;;;;;;14.90;2.43;;;;;;;12.63;43.69;99353.97;1755215;81;21131;-76
2022/05/12 02:44:30;;;;;;;7.10;2.70;;;;;;;12.67;43.57;99355.16;1755121;81;21502;-76
2022/05/12 02:46:57;;;;;;;8.00;3.08;;;;;;;12.68;43.46;99360.84;1754965;81;21889;-76
2022/05/12 02:49:24;;;;;;;10.13;2.95;;;;;;;12.70;43.44;99364.25;1754911;81;21031;-76
2022/05/12 02:51:50;;;;;;;8.58;3.02;;;;;;;12.73;43.29;99358.84;1755174;81;21110;-76
2022/05/12 02:54:17;;;;;;;4.40;2.67;;;;;;;12.74;43.50;99359.22;1755019;81;21094;-76
2022/05/12 02:56:44;;;;;;;4.25;2.52;;;;;;;12.76;43.25;99365.27;1755664;81;20998;-77
2022/05/12 02:59:11;;;;;;;4.80;2.50;;;;;;;12.77;43.49;99357.76;1755187;81;21122;-76
2022/05/12 03:01:37;;;;;;;7.58;2.37;;;;;;;12.78;43.44;99360.80;1755314;81;20991;-76
2022/05/12 03:04:04;;;;;;;7.37;2.70;;;;;;;12.80;43.25;99363.75;1755160;81;21070;-76
2022/05/12 03:06:31;;;;;;;4.00;2.72;;;;;;;12.82;43.20;99366.32;1755041;81;21138;-76
2022/05/12 03:08:58;;;;;;;10.28;2.75;;;;;;;12.83;43.37;99360.13;1755261;81;21072;-75
2022/05/12 03:11:27;;;;;;;4.17;2.60;;;;;;;12.85;43.32;99363.55;1755261;81;21003;-77
2022/05/12 03:13:54;;;;;;;9.53;2.40;;;;;;;12.87;43.25;99359.05;1755221;81;21007;-76
2022/05/12 03:16:20;;;;;;;5.87;2.58;;;;;;;12.90;43.06;99363.34;1754993;81;21067;-76
2022/05/12 03:18:49;;;;;;;6.03;2.85;;;;;;;12.92;43.21;99357.04;1755339;81;21071;-75
2022/05/12 03:21:16;;;;;;;7.90;2.80;;;;;;;12.94;43.28;99357.81;1755114;81;21561;-76
2022/05/12 03:23:42;;;;;;;5.08;2.30;;;;;;;12.95;43.39;99355.58;1755468;81;21059;-76
2022/05/12 03:26:09;;;;;;;3.58;2.27;;;;;;;12.97;43.31;99360.32;1754708;81;21047;-75
2022/05/12 03:28:37;;;;;;;6.25;2.20;;;;;;;12.99;43.74;99352.33;1754948;81;20992;-76
2022/05/12 03:31:04;;;;;;;5.87;1.95;;;;;;;13.01;43.72;99362.34;1755188;81;21539;-76
2022/05/12 03:33:32;;;;;;;7.00;2.20;;;;;;;13.02;43.68;99349.55;1755082;81;21522;-76
2022/05/12 03:35:58;;;;;;;3.75;2.12;;;;;;;13.05;43.32;99353.84;1755185;81;21757;-76
2022/05/12 03:38:25;;;;;;;10.10;2.58;;;;;;;13.08;43.25;99356.31;1753744;81;20881;-76
2022/05/12 03:40:52;;;;;;;4.47;2.17;;;;;;;13.11;43.37;99353.53;1759849;81;21022;-76
2022/05/12 03:46:04;;;;;;;9.98;2.40;;;;;;;13.19;43.31;99354.02;1724140;83;21390;-75
2022/05/12 03:48:30;;;;;;;3.98;2.00;;;;;;;13.23;43.21;99353.41;1760033;81;21157;-76
2022/05/12 03:50:57;;;;;;;8.83;2.15;;;;;;;13.26;43.25;99350.63;1759796;81;21173;-76
2022/05/12 03:53:25;;;;;;;7.90;2.00;;;;;;;13.30;43.27;99357.02;1723976;83;21641;-76
2022/05/12 03:55:52;;;;;;;8.78;2.12;;;;;;;13.34;43.50;99351.98;1724146;83;20996;-75
2022/05/12 03:58:19;;;;;;;5.42;2.02;;;;;;;13.38;43.32;99348.28;1759651;81;21002;-75
2022/05/12 04:00:50;;;;;;;8.00;2.00;;;;;;;13.45;43.37;99351.92;1759831;81;21165;-75
2022/05/12 04:03:17;;;;;;;5.62;2.65;;;;;;;13.50;43.27;99348.59;1723655;83;21161;-75
2022/05/12 04:05:44;;;;;;;4.35;2.83;;;;;;;13.55;42.71;99347.45;1759764;81;21105;-76
2022/05/12 04:08:11;;;;;;;3.62;2.20;;;;;;;13.62;42.27;99355.94;1759725;81;21085;-76
2022/05/12 04:10:39;;;;;;;13.22;2.95;;;;;;;13.67;42.48;99349.95;1723739;83;21153;-76
2022/05/12 04:13:05;;;;;;;7.20;2.55;;;;;;;13.75;42.37;99347.78;1724007;82;21119;-76
2022/05/12 04:15:32;;;;;;;11.73;2.72;;;;;;;13.81;42.33;99349.72;1759455;81;21113;-76
2022/05/12 04:18:02;;;;;;;7.87;2.70;;;;;;;13.84;42.49;99350.89;1759958;81;21073;-76
2022/05/12 04:20:31;;;;;;;12.53;3.05;;;;;;;13.87;42.13;99348.06;1760051;81;21568;-76
2022/05/12 04:22:58;;;;;;;4.40;2.55;;;;;;;13.89;42.55;99355.48;1723772;83;20991;-75
2022/05/12 04:25:25;;;;;;;9.18;3.17;;;;;;;13.89;42.29;99354.16;1759470;81;21133;-76
2022/05/12 04:27:52;;;;;;;10.63;3.98;;;;;;;13.90;42.60;99351.89;1758826;81;21204;-76
2022/05/12 04:30:24;;;;;;;10.03;2.85;;;;;;;13.91;42.20;99349.16;1759731;81;21023;-75
2022/05/12 04:32:51;;;;;;;9.95;2.55;;;;;;;13.91;42.27;99349.64;1760056;81;21487;-76
2022/05/12 04:35:20;;;;;;;8.88;2.70;;;;;;;13.92;42.34;99354.01;1758230;81;20994;-76
2022/05/12 04:37:54;;;;;;;10.78;2.77;;;;;;;13.92;42.55;99352.69;1756610;81;21122;-75
2022/05/12 04:40:26;;;;;;;18.25;2.50;;;;;;;13.94;42.51;99349.48;1756671;81;21069;-75
2022/05/12 04:42:54;;;;;;;7.10;2.90;;;;;;;13.99;42.76;99346.14;1757249;81;21072;-75
2022/05/12 04:45:22;;;;;;;10.68;3.05;;;;;;;14.07;42.88;99346.61;1756737;81;21565;-76
2022/05/12 04:47:49;;;;;;;6.95;3.02;;;;;;;14.21;43.00;99341.06;1757084;81;21069;-76
2022/05/12 04:50:22;;;;;;;13.03;4.55;;;;;;;14.35;42.46;99345.63;1756934;81;21545;-76
2022/05/12 04:52:48;;;;;;;13.30;5.37;;;;;;;14.46;42.04;99338.82;1756715;81;21042;-76
2022/05/12 04:55:16;;;;;;;9.90;3.90;;;;;;;14.61;41.93;99346.92;1756706;81;20990;-75
2022/05/12 04:57:46;;;;;;;14.25;6.55;;;;;;;14.76;41.82;99346.08;1756727;81;21157;-76
2022/05/12 05:00:20;;;;;;;12.33;4.72;;;;;;;14.97;40.85;99340.53;1757422;81;21538;-75
2022/05/12 05:02:47;;;;;;;16.25;6.90;;;;;;;15.18;40.16;99343.77;1757355;81;21809;-76
2022/05/12 05:05:13;;;;;;;15.80;6.45;;;;;;;15.41;40.51;99345.11;1757470;81;21074;-76
2022/05/12 05:07:40;;;;;;;12.58;4.80;;;;;;;15.61;39.78;99346.14;1757180;81;21176;-75
2022/05/12 05:10:07;;;;;;;7.55;4.00;;;;;;;15.80;39.06;99343.77;1757402;81;21093;-75
2022/05/12 05:12:34;;;;;;;12.13;3.45;;;;;;;16.00;39.05;99341.73;1757400;81;21518;-76
2022/05/12 05:15:00;;;;;;;12.50;2.80;;;;;;;16.19;38.72;99335.72;1756980;81;22283;-76
2022/05/12 05:17:27;;;;;;;12.23;2.75;;;;;;;16.38;37.82;99325.30;1757067;81;21018;-76
2022/05/12 05:19:54;;;;;;;10.50;3.37;;;;;;;16.58;38.07;99328.89;1756897;81;21074;-75
2022/05/12 05:22:20;;;;;;;19.30;2.60;;;;;;;16.76;37.38;99322.03;1756848;81;21097;-75
2022/05/12 05:24:46;;;;;;;12.20;2.15;;;;;;;16.94;36.30;99324.88;1756991;81;21112;-75
2022/05/12 05:27:13;;;;;;;19.05;2.50;;;;;;;17.14;35.43;99324.08;1756647;81;21199;-74
2022/05/12 05:29:40;;;;;;;23.25;3.33;;;;;;;17.31;35.87;99317.17;1756843;81;21080;-76
2022/05/12 05:32:10;;;;;;;11.75;2.95;;;;;;;17.49;36.22;99311.61;1756892;81;21092;-76
2022/05/12 05:34:36;;;;;;;4.67;2.40;;;;;;;17.70;36.11;99311.51;1757316;81;21101;-75
2022/05/12 05:37:03;;;;;;;11.48;3.00;;;;;;;17.91;34.30;99315.02;1760074;81;21188;-74
2022/05/12 05:39:30;;;;;;;21.10;2.90;;;;;;;18.13;34.34;99305.08;1759927;81;21121;-76
2022/05/12 05:42:04;;;;;;;10.88;2.42;;;;;;;18.32;33.50;99300.16;1760701;80;21089;-75
2022/05/12 05:44:32;;;;;;;8.58;2.35;;;;;;;18.53;32.92;99302.29;1716721;83;21059;-76
2022/05/12 05:47:00;;;;;;;5.92;2.17;;;;;;;18.72;32.86;99295.16;1753901;81;23060;-74
2022/05/12 05:49:28;;;;;;;5.33;2.20;;;;;;;18.93;32.80;99286.97;1732473;82;21057;-76
2022/05/12 05:54:41;;;;;;;8.05;2.15;;;;;;;19.30;31.63;99282.92;1732235;82;21101;-74
2022/05/12 05:57:08;;;;;;;8.28;2.25;;;;;;;19.44;30.75;99271.20;1732685;82;21113;-76
2022/05/12 05:59:34;;;;;;;12.37;2.52;;;;;;;19.48;31.23;99270.48;1732294;82;21038;-75
2022/05/12 06:02:01;;;;;;;8.35;2.30;;;;;;;19.45;31.10;99269.37;1732433;82;21055;-75
2022/05/12 06:04:29;;;;;;;9.58;2.20;;;;;;;19.42;31.43;99264.30;1732226;82;21106;-75
2022/05/12 06:06:56;;;;;;;9.33;2.00;;;;;;;19.41;30.96;99271.92;1732284;82;21086;-75
2022/05/12 06:09:24;;;;;;;6.53;2.70;;;;;;;19.40;30.98;99265.75;1732561;82;21018;-75
2022/05/12 06:11:51;;;;;;;5.78;2.22;;;;;;;19.41;31.32;99269.26;1732033;82;21565;-74
2022/05/12 06:14:17;;;;;;;13.03;2.02;;;;;;;19.46;32.25;99264.42;1732434;82;21573;-75
2022/05/12 06:16:44;;;;;;;8.55;2.08;;;;;;;19.60;31.97;99264.24;1732594;82;21174;-75
2022/05/12 06:19:10;;;;;;;5.80;1.70;;;;;;;19.79;31.42;99262.86;1732754;82;21118;-77
2022/05/12 06:21:37;;;;;;;5.87;1.87;;;;;;;19.97;31.13;99248.09;1732166;82;21059;-76
2022/05/12 06:24:04;;;;;;;5.08;1.85;;;;;;;20.15;31.13;99247.11;1732547;82;21061;-76
2022/05/12 06:26:31;;;;;;;10.35;2.40;;;;;;;20.30;31.07;99241.05;1732401;82;21513;-74
2022/05/12 06:28:58;;;;;;;9.15;1.80;;;;;;;20.49;31.26;99234.23;1732286;82;21263;-75
2022/05/12 06:31:25;;;;;;;5.70;2.58;;;;;;;20.66;31.25;99227.09;1732586;82;20999;-75
2022/05/12 06:33:53;;;;;;;6.58;2.17;;;;;;;20.87;30.55;99223.63;1753882;81;21661;-75
2022/05/12 06:36:19;;;;;;;6.60;2.00;;;;;;;21.04;31.07;99221.73;1746628;80;21634;-75
2022/05/12 06:38:47;;;;;;;7.55;1.95;;;;;;;21.21;30.58;99226.17;1697109;84;21039;-75
2022/05/12 06:41:14;;;;;;;17.17;2.20;;;;;;;21.33;31.11;99226.01;1698470;83;21146;-75
2022/05/12 06:43:45;;;;;;;8.05;2.22;;;;;;;21.47;31.16;99218.18;1697040;84;21515;-75
2022/05/12 06:46:15;;;;;;;9.70;2.70;;;;;;;21.63;30.33;99216.87;1698994;83;21637;-75
2022/05/12 06:48:42;;;;;;;8.33;2.10;;;;;;;21.79;31.03;99213.73;1699173;83;21093;-74
2022/05/12 06:51:11;;;;;;;7.47;2.55;;;;;;;21.98;30.14;99204.95;1698782;84;21475;-75
2022/05/12 06:53:38;;;;;;;6.60;2.27;;;;;;;22.15;30.42;99212.34;1698690;83;21100;-75
2022/05/12 06:56:07;;;;;;;8.70;1.90;;;;;;;22.30;30.66;99203.98;1698684;83;21016;-76
2022/05/12 06:58:35;;;;;;;10.03;2.35;;;;;;;22.47;29.70;99207.34;1698617;83;21091;-74
2022/05/12 07:01:02;;;;;;;4.03;1.77;;;;;;;22.57;30.42;99212.23;1699094;84;21043;-75
2022/05/12 07:03:29;;;;;;;9.23;2.45;;;;;;;22.70;30.65;99211.98;1698753;84;21478;-76
2022/05/12 07:05:57;;;;;;;6.00;2.30;;;;;;;22.83;30.10;99219.79;1698753;83;21282;-76
2022/05/12 07:08:26;;;;;;;8.20;3.05;;;;;;;22.91;29.85;99211.03;1698729;84;21090;-75
2022/05/12 07:10:52;;;;;;;10.58;3.15;;;;;;;22.95;29.89;99214.64;1699079;84;21189;-75
2022/05/12 07:13:20;;;;;;;8.28;2.55;;;;;;;22.97;29.48;99205.95;1698769;83;21126;-76
2022/05/12 07:15:48;;;;;;;14.40;2.50;;;;;;;23.02;29.87;99206.05;1698917;84;21019;-76
2022/05/12 07:18:19;;;;;;;16.48;2.35;;;;;;;23.11;30.09;99206.05;1698367;84;22335;-76
2022/05/12 07:29:03;;;;;;;4.45;2.33;;;;;;;23.21;30.02;99211.93;1698724;84;21114;-75
2022/05/12 07:31:29;;;;;;;7.75;2.27;;;;;;;23.26;30.44;99201.61;1698219;83;21239;-75
2022/05/12 07:33:57;;;;;;;7.62;2.62;;;;;;;23.33;31.01;99206.28;1698501;83;21054;-75
2022/05/12 07:36:29;;;;;;;8.10;2.55;;;;;;;23.42;30.76;99209.95;1698685;83;21699;-75
2022/05/12 07:38:58;;;;;;;7.35;2.52;;;;;;;23.55;30.93;99194.38;1699019;84;21083;-74
2022/05/12 07:41:25;;;;;;;7.28;3.08;;;;;;;23.73;30.22;99194.97;1698969;83;21605;-75
2022/05/12 07:43:51;;;;;;;7.08;2.17;;;;;;;23.80;30.58;99187.17;1698929;83;21138;-75
2022/05/12 07:46:22;;;;;;;7.80;2.15;;;;;;;23.84;30.23;99189.46;1698835;84;21011;-75
2022/05/12 07:48:50;;;;;;;6.97;2.30;;;;;;;23.87;30.28;99185.62;1720732;82;21126;-75
2022/05/12 07:51:17;;;;;;;4.40;2.60;;;;;;;23.89;30.40;99190.38;1732316;82;21018;-75
2022/05/12 07:53:48;;;;;;;13.45;2.90;;;;;;;23.98;30.91;99180.58;1732440;82;21001;-76
2022/05/12 07:56:18;;;;;;;4.90;2.10;;;;;;;24.08;30.51;99176.84;1732306;82;21136;-75
2022/05/12 07:58:46;;;;;;;8.53;2.33;;;;;;;24.11;29.77;99167.66;1732227;82;21581;-75
2022/05/12 08:01:14;;;;;;;5.05;2.33;;;;;;;24.14;30.58;99163.80;1732378;82;21632;-76
2022/05/12 08:03:42;;;;;;;10.80;2.20;;;;;;;24.19;30.03;99164.20;1732288;82;20994;-74
2022/05/12 08:06:09;;;;;;;14.13;2.47;;;;;;;24.22;30.12;99162.56;1732571;82;20999;-74
2022/05/12 08:08:36;;;;;;;8.68;2.17;;;;;;;24.31;31.00;99164.38;1754242;81;21127;-74
2022/05/12 08:11:05;;;;;;;8.70;2.87;;;;;;;24.39;30.61;99153.69;1754334;81;21075;-75
2022/05/12 08:13:32;;;;;;;6.50;2.02;;;;;;;24.44;30.67;99152.77;1753882;81;21055;-75
2022/05/12 08:15:59;;;;;;;6.00;2.70;;;;;;;24.53;30.92;99152.83;1754502;81;21016;-74
2022/05/12 08:18:27;;;;;;;7.60;2.35;;;;;;;24.65;31.04;99159.73;1753941;81;21122;-75
2022/05/12 08:20:53;;;;;;;6.30;2.10;;;;;;;24.70;30.66;99139.94;1753926;81;21701;-76
2022/05/12 08:23:20;;;;;;;5.17;2.40;;;;;;;24.74;30.78;99148.04;1754145;81;21602;-75
2022/05/12 08:25:47;;;;;;;4.03;2.10;;;;;;;24.78;30.75;99149.45;1753789;81;21125;-75
2022/05/12 08:28:16;;;;;;;9.35;2.52;;;;;;;24.85;31.07;99150.52;1753969;81;21121;-76
2022/05/12 08:30:44;;;;;;;8.28;2.83;;;;;;;24.98;30.46;99142.54;1753967;81;21082;-74
2022/05/12 08:33:11;;;;;;;7.75;2.05;;;;;;;25.09;30.88;99142.31;1754104;81;21140;-75
2022/05/12 08:35:40;;;;;;;13.60;2.70;;;;;;;25.23;30.22;99146.28;1751585;81;21169;-75
2022/05/12 08:38:06;;;;;;;6.58;2.37;;;;;;;25.38;29.99;99136.66;1732258;82;22033;-74
2022/05/12 08:41:06;;;;;;;18.87;12.28;;;;;;;25.46;29.63;99135.89;1732301;82;20994;-76
2022/05/12 08:43:59;;;;;;;20.25;8.15;;;;;;;25.43;29.42;99133.50;1768501;80;21076;-74
2022/05/12 08:46:37;;;;;;;10.08;3.35;;;;;;;25.39;29.83;99126.24;1787551;80;21236;-76
2022/05/12 08:49:28;;;;;;;20.30;3.33;;;;;;;25.47;30.16;99132.20;1784498;80;21071;-76
2022/05/12 08:52:17;;;;;;;5.50;2.40;;;;;;;25.61;30.34;99121.84;1788626;80;21142;-77
2022/05/12 08:54:50;;;;;;;19.73;3.42;;;;;;;25.73;30.54;99120.56;1788170;80;21559;-74
2022/05/12 08:57:33;;;;;;;8.53;2.70;;;;;;;25.92;29.47;99131.59;1788028;80;21040;-74
2022/05/12 09:00:06;;;;;;;8.48;2.00;;;;;;;25.98;29.18;99124.77;1788191;80;22176;-77
2022/05/12 09:02:50;;;;;;;11.12;2.60;;;;;;;25.95;29.88;99115.97;1788000;80;21020;-75
2022/05/12 09:05:21;;;;;;;13.25;3.25;;;;;;;26.00;29.80;99112.80;1755483;80;21048;-74
2022/05/12 09:07:56;;;;;;;11.88;2.70;;;;;;;26.06;29.98;99112.67;1788297;80;21934;-74
2022/05/12 09:10:43;;;;;;;16.27;3.00;;;;;;;26.10;29.60;99108.63;1788367;80;21055;-75
2022/05/12 09:13:25;;;;;;;13.28;3.12;;;;;;;26.10;29.21;99107.28;1787920;80;21209;-75
2022/05/12 09:16:30;;;;;;;13.28;2.87;;;;;;;26.09;29.41;99125.80;1788009;80;21025;-75
2022/05/12 09:18:59;;;;;;;16.75;2.50;;;;;;;26.11;29.08;99113.02;1788190;80;21068;-76
2022/05/12 09:21:35;;;;;;;9.63;2.42;;;;;;;26.11;29.17;99093.64;1787809;80;21079;-75
2022/05/12 09:24:04;;;;;;;15.65;3.10;;;;;;;26.17;29.64;99086.73;1788583;80;21068;-76
2022/05/12 09:26:46;;;;;;;8.78;2.83;;;;;;;26.28;29.80;99081.05;1788367;80;21974;-75
2022/05/12 09:29:25;;;;;;;5.55;2.40;;;;;;;26.38;29.49;99084.08;1788484;80;21570;-76
2022/05/12 09:32:10;;;;;;;17.25;2.77;;;;;;;26.44;29.93;99073.98;1788350;80;21050;-76
2022/05/12 09:34:46;;;;;;;17.50;3.25;;;;;;;26.59;29.41;99070.97;1788250;80;21708;-74
2022/05/12 09:37:19;;;;;;;8.90;2.80;;;;;;;26.76;28.09;99073.20;1787757;80;21067;-75
2022/05/12 09:39:50;;;;;;;6.05;2.40;;;;;;;26.76;28.64;99071.02;1788349;80;21227;-75
2022/05/12 09:42:35;;;;;;;6.12;3.08;;;;;;;26.75;28.21;99066.62;1787935;80;21536;-76
2022/05/12 09:45:27;;;;;;;6.42;2.77;;;;;;;26.77;28.89;99052.48;1788538;80;21059;-75
2022/05/12 09:48:18;;;;;;;14.90;2.70;;;;;;;26.88;28.41;99067.83;1764192;80;21080;-74
2022/05/12 09:50:47;;;;;;;14.87;3.20;;;;;;;26.91;28.37;99083.34;1788181;80;21048;-75
2022/05/12 09:53:16;;;;;;;6.62;4.62;;;;;;;26.86;28.05;99051.45;1715804;83;21099;-76
2022/05/12 09:56:01;;;;;;;10.88;2.62;;;;;;;26.84;28.63;99035.42;1683132;83;21713;-76
2022/05/12 09:58:38;;;;;;;14.03;3.37;;;;;;;26.93;28.63;99027.31;1699074;83;21072;-76
2022/05/12 10:01:23;;;;;;;6.08;2.75;;;;;;;27.01;28.24;99018.70;1709235;83;21927;-75
2022/05/12 10:09:29;;;;;;;12.68;2.92;;;;;;;27.25;27.76;99022.36;1709013;83;21088;-77
2022/05/12 10:12:23;;;;;;;16.55;2.75;;;;;;;27.21;26.93;99019.68;1709175;83;21127;-74
2022/05/12 10:15:05;;;;;;;13.78;2.65;;;;;;;27.18;27.28;99030.82;1709216;83;21055;-75
2022/05/12 10:17:44;;;;;;;12.28;2.98;;;;;;;27.24;27.21;99028.80;1708919;83;21637;-75
2022/05/12 10:20:23;;;;;;;9.83;2.47;;;;;;;27.32;27.06;99008.55;1709122;83;21241;-75
2022/05/12 10:23:07;;;;;;;11.18;2.50;;;;;;;27.43;27.69;99013.55;1709050;83;21147;-75
2022/05/12 10:25:58;;;;;;;6.03;2.52;;;;;;;27.58;27.04;99021.78;1709101;83;21139;-76
2022/05/12 10:28:59;;;;;;;14.80;3.20;;;;;;;27.70;27.29;98997.91;1709183;83;21091;-76
2022/05/12 10:31:30;;;;;;;19.27;2.83;;;;;;;27.76;26.88;98997.22;1709312;83;21123;-76
2022/05/12 10:34:27;;;;;;;24.70;4.00;;;;;;;27.70;26.63;99038.45;1683486;83;21189;-74
2022/05/12 10:37:33;;;;;;;16.20;2.83;;;;;;;27.56;26.59;99008.13;1701857;83;21056;-75
2022/05/12 10:40:11;;;;;;;12.25;2.67;;;;;;;27.51;26.98;98997.00;1700203;82;21139;-75
2022/05/12 10:42:59;;;;;;;18.98;3.02;;;;;;;27.61;27.20;98976.84;1731195;82;21103;-74
2022/05/12 10:45:46;;;;;;;19.77;3.75;;;;;;;27.63;26.80;98994.23;1732487;82;21053;-75
2022/05/12 10:48:44;;;;;;;21.70;3.42;;;;;;;27.47;26.50;98988.41;1726266;83;21696;-75
2022/05/12 10:51:35;;;;;;;29.30;3.22;;;;;;;27.47;26.88;98976.73;1726316;83;21616;-76
2022/05/12 10:54:19;;;;;;;21.52;3.15;;;;;;;27.62;26.85;98964.17;1726326;83;21101;-74
2022/05/12 10:56:54;;;;;;;15.20;3.17;;;;;;;27.82;26.11;98978.61;1726249;83;21027;-74
2022/05/12 11:00:03;;;;;;;17.98;2.90;;;;;;;27.77;25.88;98967.83;1713712;83;21057;-76
2022/05/12 11:02:39;;;;;;;21.27;3.30;;;;;;;27.50;26.29;98956.13;1726312;83;22115;-74
2022/05/12 11:05:36;;;;;;;50.67;4.60;;;;;;;27.31;26.73;98954.19;1726167;83;21051;-75
2022/05/12 11:08:30;;;;;;;40.43;3.70;;;;;;;27.30;27.45;98954.35;1725681;83;21052;-74
2022/05/12 11:11:11;;;;;;;16.12;2.47;;;;;;;27.48;27.09;98953.60;1726269;83;21035;-74
2022/05/12 11:14:17;;;;;;;19.50;2.77;;;;;;;27.62;26.61;98938.50;1726425;83;21034;-75
2022/05/12 11:16:52;;;;;;;23.60;4.10;;;;;;;27.66;26.70;98938.49;1725833;83;21379;-75
2022/05/12 11:19:25;;;;;;;45.35;3.83;;;;;;;27.75;26.90;98940.11;1726037;83;21070;-75
2022/05/12 11:22:09;;;;;;;29.55;3.30;;;;;;;27.79;26.64;98942.81;1725925;83;21031;-75
2022/05/12 11:24:53;;;;;;;15.83;4.08;;;;;;;27.82;26.82;98915.91;1726561;83;21561;-75
2022/05/12 11:27:37;;;;;;;22.37;2.83;;;;;;;27.96;26.08;98913.00;1726681;83;21518;-76
2022/05/12 11:30:29;;;;;;;51.83;4.83;;;;;;;28.06;25.73;98914.95;1726192;83;21355;-76
2022/05/12 11:33:34;;;;;;;18.82;2.85;;;;;;;28.15;25.64;98908.44;1726431;83;21096;-76
2022/05/12 11:36:01;;;;;;;8.58;2.30;;;;;;;28.26;25.53;98910.38;1726079;83;21077;-75
2022/05/12 11:38:43;;;;;;;12.75;2.72;;;;;;;28.21;25.90;98924.47;1744531;80;21053;-76
2022/05/12 11:41:35;;;;;;;11.20;2.30;;;;;;;28.14;25.62;98916.25;1746738;82;21007;-75
2022/05/12 11:44:25;;;;;;;20.00;2.40;;;;;;;28.17;25.47;98923.14;1749517;80;21690;-76
2022/05/12 11:47:40;;;;;;;25.37;3.62;;;;;;;28.14;25.33;98908.12;1690250;84;21515;-76
2022/05/12 11:50:24;;;;;;;19.55;3.45;;;;;;;28.23;25.36;98902.66;1721998;83;21592;-77
2022/05/12 11:53:05;;;;;;;35.05;3.80;;;;;;;28.35;25.44;98880.89;1722022;83;21121;-77
2022/05/12 11:55:35;;;;;;;27.55;3.33;;;;;;;28.40;25.42;98881.19;1722261;83;21046;-76
2022/05/12 11:58:11;;;;;;;26.82;3.60;;;;;;;28.38;25.39;98867.01;1722335;83;21264;-75
2022/05/12 12:00:45;;;;;;;32.80;2.70;;;;;;;28.42;25.14;98900.77;1722255;83;21096;-76
2022/05/12 12:03:26;;;;;;;11.90;2.25;;;;;;;28.45;25.08;98869.30;1722182;83;21054;-75
2022/05/12 12:05:59;;;;;;;18.48;2.58;;;;;;;28.46;24.71;98853.40;1722281;83;21083;-76
2022/05/12 12:08:39;;;;;;;30.15;3.60;;;;;;;28.38;25.35;98857.53;1722362;83;21054;-76
2022/05/12 12:11:22;;;;;;;16.37;2.33;;;;;;;28.32;25.67;98845.56;1722665;83;21179;-75